createdAt,value
2022-10-04T04:17:35.696Z,83.81
2022-10-04T04:20:07.875Z,83.63
2022-10-04T04:22:36.127Z,83.45
2022-10-04T04:25:08.238Z,83.21
2022-10-04T04:27:39.817Z,83.62
2022-10-04T04:30:08.039Z,83.73
2022-10-04T04:32:45.270Z,83.71
2022-10-04T04:35:33.520Z,83.76
2022-10-04T04:38:22.317Z,84.16
2022-10-04T04:40:50.016Z,83.69
2022-10-04T04:43:20.006Z,83.81
2022-10-04T04:46:03.021Z,83.88
2022-10-04T04:48:36.961Z,84.23
2022-10-04T04:51:04.799Z,84.15
2022-10-04T04:53:32.487Z,84.51
2022-10-04T04:56:11.044Z,84.22
2022-10-04T04:58:42.428Z,83.92
2022-10-04T05:01:25.834Z,83.84
2022-10-04T05:04:04.117Z,83.54
2022-10-04T05:06:32.597Z,83.57
2022-10-04T05:08:59.496Z,84.29
2022-10-04T05:11:37.695Z,83.96
2022-10-04T05:14:08.999Z,84.28
2022-10-04T05:16:59.584Z,84.31
2022-10-04T05:20:22.209Z,84.57
2022-10-04T05:22:49.699Z,84.83
2022-10-04T05:25:29.991Z,84.66
2022-10-04T05:27:56.934Z,84.67
2022-10-04T05:30:47.510Z,85.28
2022-10-04T05:33:36.095Z,85.21
2022-10-04T05:36:22.017Z,84.84
2022-10-04T05:39:06.090Z,85.48
2022-10-04T05:45:27.716Z,85.18
2022-10-04T05:47:57.149Z,85.52
2022-10-04T05:50:48.722Z,85.84
2022-10-04T05:53:24.425Z,85.64
2022-10-04T05:56:13.847Z,85.99
2022-10-04T05:59:32.155Z,85.55
2022-10-04T06:02:14.210Z,85.83
2022-10-04T06:05:08.882Z,85.38
2022-10-04T06:07:40.562Z,85.20
2022-10-04T06:10:28.405Z,85.05
2022-10-04T06:12:59.083Z,85.21
2022-10-04T06:16:01.670Z,85.10
2022-10-04T06:18:49.312Z,84.94
2022-10-04T06:22:18.579Z,84.88
2022-10-04T06:24:50.756Z,84.55
2022-10-04T06:27:19.623Z,84.01
2022-10-04T06:29:57.441Z,84.04
2022-10-04T06:32:50.599Z,83.54
2022-10-04T06:35:42.906Z,83.61
2022-10-04T06:38:34.289Z,83.08
2022-10-04T06:41:22.353Z,83.16
2022-10-04T06:43:59.557Z,83.20
2022-10-04T06:46:51.287Z,82.75
2022-10-04T06:49:36.730Z,82.70
2022-10-04T06:52:17.365Z,82.61
2022-10-04T06:55:02.384Z,82.51
2022-10-04T06:57:48.583Z,83.25
2022-10-04T07:00:25.459Z,82.94
2022-10-04T07:03:11.677Z,82.82
2022-10-04T07:05:53.238Z,82.78
2022-10-04T07:08:31.178Z,82.31
2022-10-04T07:11:28.250Z,82.02
2022-10-04T07:14:04.084Z,81.97
2022-10-04T07:16:49.053Z,81.68
2022-10-04T07:19:46.607Z,80.95
2022-10-04T07:22:16.066Z,80.20
2022-10-04T07:25:05.822Z,80.43
2022-10-04T07:28:22.165Z,80.14
2022-10-04T07:30:55.855Z,79.51
2022-10-04T07:33:24.956Z,79.46
2022-10-04T07:36:01.094Z,79.62
2022-10-04T07:38:32.016Z,80.32
2022-10-04T07:40:58.435Z,80.31
2022-10-04T07:43:29.806Z,80.05
2022-10-04T07:46:17.268Z,79.66
2022-10-04T07:48:43.955Z,79.69
2022-10-04T07:51:41.504Z,79.81
2022-10-04T07:54:45.740Z,79.62
2022-10-04T07:57:33.609Z,78.94
2022-10-04T08:00:19.731Z,79.26
2022-10-04T08:03:21.672Z,78.92
2022-10-04T08:06:13.109Z,79.81
2022-10-04T08:09:06.018Z,79.45
2022-10-04T08:12:06.505Z,79.13
2022-10-04T08:15:10.933Z,79.36
2022-10-04T08:18:05.215Z,79.13
2022-10-04T08:20:46.834Z,78.85
2022-10-04T08:23:45.182Z,78.88
2022-10-04T08:26:33.601Z,79.66
2022-10-04T08:29:39.109Z,79.07
2022-10-04T08:33:01.712Z,78.85
2022-10-04T08:35:34.234Z,77.27
2022-10-04T08:38:14.614Z,76.09
2022-10-04T08:41:33.318Z,75.84
2022-10-04T08:44:24.504Z,75.64
2022-10-04T08:46:52.954Z,75.81
2022-10-04T08:49:38.321Z,74.61
2022-10-04T08:52:20.478Z,74.61
2022-10-04T08:55:20.878Z,74.92
2022-10-04T08:58:16.464Z,74.46
2022-10-04T09:01:25.632Z,74.93
2022-10-04T09:04:33.460Z,74.42
2022-10-04T09:07:26.999Z,73.47
2022-10-04T09:10:35.960Z,71.23
2022-10-04T09:13:14.030Z,70.93
2022-10-04T09:15:53.844Z,71.51
2022-10-04T09:18:45.420Z,72.78
2022-10-04T09:21:22.771Z,72.63
2022-10-04T09:24:24.666Z,73.22
2022-10-04T09:27:19.875Z,72.30
2022-10-04T09:30:19.682Z,70.98
2022-10-04T09:33:11.168Z,70.44
2022-10-04T09:36:08.107Z,70.22
2022-10-04T09:39:38.519Z,69.51
2022-10-04T09:42:23.697Z,68.63
2022-10-04T09:45:08.705Z,67.76
2022-10-04T09:47:38.114Z,67.95
2022-10-04T09:50:14.245Z,68.33
2022-10-04T09:52:55.468Z,67.35
2022-10-04T09:55:59.506Z,67.47
2022-10-04T09:58:51.528Z,66.12
2022-10-04T10:02:30.588Z,63.30
2022-10-04T10:05:27.659Z,61.26
2022-10-04T10:08:18.207Z,59.69
2022-10-04T10:11:21.061Z,61.16
2022-10-04T10:13:50.544Z,61.94
2022-10-04T10:17:01.268Z,61.85
2022-10-04T10:19:46.976Z,60.73
2022-10-04T10:22:39.239Z,59.41
2022-10-04T10:25:11.860Z,58.90
2022-10-04T10:28:06.289Z,60.12
2022-10-04T10:30:52.826Z,58.95
2022-10-04T10:33:51.724Z,60.54
2022-10-04T10:36:35.059Z,59.95
2022-10-04T10:39:01.850Z,59.73
2022-10-04T10:41:43.241Z,58.74
2022-10-04T10:44:38.605Z,58.05
2022-10-04T10:47:32.057Z,56.79
2022-10-04T10:50:33.324Z,56.99
2022-10-04T10:53:31.282Z,55.49
2022-10-04T10:56:13.078Z,55.54
2022-10-04T10:59:02.584Z,55.69
2022-10-04T11:02:05.783Z,54.02
2022-10-04T11:05:03.978Z,55.19
2022-10-04T11:07:53.431Z,54.23
2022-10-04T11:10:33.993Z,53.25
2022-10-04T11:13:21.295Z,51.03
2022-10-04T11:16:10.862Z,51.67
2022-10-04T11:19:16.822Z,48.29
2022-10-04T11:21:50.632Z,45.89
2022-10-04T11:24:35.961Z,44.83
2022-10-04T11:28:16.524Z,43.42
2022-10-04T11:30:58.668Z,41.71
2022-10-04T11:33:58.974Z,40.45
2022-10-04T11:36:51.802Z,38.57
2022-10-04T11:39:48.483Z,39.44
2022-10-04T11:42:30.455Z,36.71
2022-10-04T11:45:34.122Z,35.05
2022-10-04T11:48:31.170Z,33.15
2022-10-04T11:51:40.412Z,34.49
2022-10-04T11:54:59.285Z,32.62
2022-10-04T11:57:40.287Z,30.70
2022-10-04T12:00:20.851Z,30.06
2022-10-04T12:03:09.176Z,30.84
2022-10-04T12:05:51.127Z,33.94
2022-10-04T12:08:40.566Z,30.21
2022-10-04T12:11:16.010Z,30.19
2022-10-04T12:13:58.439Z,29.90
2022-10-04T12:16:31.067Z,30.94
2022-10-04T12:19:21.024Z,31.54
2022-10-04T12:22:01.583Z,31.16
2022-10-04T12:25:01.556Z,33.46
2022-10-04T12:27:59.547Z,30.29
2022-10-04T12:30:41.982Z,29.92
2022-10-04T12:33:20.101Z,31.70
2022-10-04T12:36:05.840Z,31.19
2022-10-04T12:39:03.561Z,31.92
2022-10-04T12:41:49.839Z,30.89
2022-10-04T12:44:31.861Z,30.50
2022-10-04T12:47:39.746Z,30.36
2022-10-04T12:50:27.505Z,31.76
2022-10-04T12:52:56.586Z,31.28
2022-10-04T12:55:47.116Z,31.84
2022-10-04T12:58:23.726Z,30.15
2022-10-04T13:00:53.491Z,30.48
2022-10-04T13:03:29.686Z,31.15
2022-10-04T13:06:08.799Z,31.10
2022-10-04T13:08:54.301Z,30.37
2022-10-04T13:11:53.195Z,28.64
2022-10-04T13:14:22.771Z,29.09
2022-10-04T13:17:33.222Z,30.79
2022-10-04T13:20:33.553Z,29.14
2022-10-04T13:23:28.866Z,28.88
2022-10-04T13:26:07.375Z,28.38
2022-10-04T13:29:06.795Z,27.98
2022-10-04T13:31:52.513Z,29.57
2022-10-04T13:34:25.124Z,30.16
2022-10-04T13:37:07.045Z,31.43
2022-10-04T13:39:50.769Z,31.10
2022-10-04T13:42:38.161Z,31.90
2022-10-04T13:45:31.963Z,31.97
2022-10-04T13:48:26.314Z,31.54
2022-10-04T13:51:03.815Z,32.71
2022-10-04T13:54:27.202Z,31.92
2022-10-04T13:57:11.838Z,32.93
2022-10-04T13:59:50.290Z,32.11
2022-10-04T14:02:54.130Z,32.70
2022-10-04T14:05:24.985Z,29.72
2022-10-04T14:08:03.563Z,29.23
2022-10-04T14:10:42.118Z,29.06
2022-10-04T14:13:26.943Z,28.73
2022-10-04T14:16:20.342Z,29.78
2022-10-04T14:19:28.900Z,28.06
2022-10-04T14:22:26.317Z,29.34
2022-10-04T14:25:02.009Z,30.89
2022-10-04T14:27:55.461Z,31.21
2022-10-04T14:30:27.659Z,31.95
2022-10-04T14:33:08.198Z,31.86
2022-10-04T14:35:53.254Z,30.59
2022-10-04T14:38:43.193Z,29.47
2022-10-04T14:41:52.448Z,30.39
2022-10-04T14:44:59.013Z,33.89
2022-10-04T14:48:11.818Z,36.18
2022-10-04T14:51:05.476Z,37.54
2022-10-04T14:53:36.937Z,40.01
2022-10-04T14:56:29.526Z,41.01
2022-10-04T14:59:17.327Z,41.11
2022-10-04T15:02:20.581Z,41.45
2022-10-04T15:05:30.029Z,41.21
2022-10-04T15:08:26.696Z,42.03
2022-10-04T15:11:07.766Z,43.34
2022-10-04T15:13:51.835Z,42.70
2022-10-04T15:16:53.455Z,42.29
2022-10-04T15:19:36.243Z,43.47
2022-10-04T15:22:19.951Z,43.36
2022-10-04T15:24:52.766Z,44.97
2022-10-04T15:27:33.461Z,44.92
2022-10-04T15:30:21.694Z,46.31
2022-10-04T15:33:00.446Z,46.07
2022-10-04T15:35:51.336Z,46.07
2022-10-04T15:38:29.177Z,46.87
2022-10-04T15:41:19.042Z,46.93
2022-10-04T15:44:11.751Z,47.71
2022-10-04T15:46:52.324Z,48.78
2022-10-04T15:49:40.707Z,49.31
2022-10-04T15:52:28.464Z,49.02
2022-10-04T15:55:21.479Z,48.78
2022-10-04T15:57:47.908Z,49.22
2022-10-04T16:00:23.550Z,49.76
2022-10-04T16:03:17.700Z,49.43
2022-10-04T16:05:49.407Z,49.79
2022-10-04T16:08:29.334Z,49.50
2022-10-04T16:11:00.423Z,49.85
2022-10-04T16:13:39.087Z,50.30
2022-10-04T16:16:32.478Z,51.08
2022-10-04T16:19:17.643Z,50.87
2022-10-04T16:21:47.125Z,50.76
2022-10-04T16:24:19.764Z,51.56
2022-10-04T16:26:56.270Z,52.12
2022-10-04T16:29:40.701Z,52.74
2022-10-04T16:32:12.916Z,52.64
2022-10-04T16:35:04.184Z,53.12
2022-10-04T16:37:38.412Z,53.49
2022-10-04T16:40:27.485Z,53.48
2022-10-04T16:43:04.656Z,53.67
2022-10-04T16:45:39.046Z,53.53
2022-10-04T16:48:27.755Z,53.39
2022-10-04T16:51:16.241Z,53.82
2022-10-04T16:54:39.722Z,54.14
2022-10-04T16:57:12.815Z,54.15
2022-10-04T16:59:39.326Z,54.16
2022-10-04T17:02:54.270Z,54.90
2022-10-04T17:05:47.441Z,55.25
2022-10-04T17:08:18.185Z,56.12
2022-10-04T17:11:18.126Z,56.81
2022-10-04T17:14:28.968Z,57.69
2022-10-04T17:17:09.072Z,58.36
2022-10-04T17:19:52.517Z,59.56
2022-10-04T17:22:26.425Z,59.96
2022-10-04T17:25:22.520Z,60.42
2022-10-04T17:27:54.891Z,60.09
2022-10-04T17:30:24.240Z,60.66
2022-10-04T17:32:55.004Z,60.52
2022-10-04T17:36:00.657Z,61.13
2022-10-04T17:38:50.370Z,60.96
2022-10-04T17:41:40.033Z,61.24
2022-10-04T17:44:47.429Z,62.20
2022-10-04T17:47:48.057Z,62.72
2022-10-04T17:51:04.273Z,63.50
2022-10-04T17:53:53.997Z,63.18
2022-10-04T17:56:37.491Z,63.83
2022-10-04T17:59:12.771Z,63.71
2022-10-04T18:01:45.746Z,64.59
2022-10-04T18:04:27.859Z,64.92
2022-10-04T18:07:31.380Z,64.99
2022-10-04T18:10:27.967Z,65.17
2022-10-04T18:13:04.606Z,65.63
2022-10-04T18:15:43.738Z,65.41
2022-10-04T18:18:18.886Z,66.02
2022-10-04T18:21:07.646Z,65.57
2022-10-04T18:23:39.082Z,65.59
2022-10-04T18:26:19.794Z,65.58
2022-10-04T18:28:48.754Z,66.13
2022-10-04T18:31:39.946Z,65.91
2022-10-04T18:34:28.211Z,66.11
2022-10-04T18:37:20.313Z,65.78
2022-10-04T18:39:54.592Z,65.50
2022-10-04T18:42:30.168Z,66.05
2022-10-04T18:45:02.507Z,66.46
2022-10-04T18:47:42.415Z,66.73
2022-10-04T18:50:21.145Z,66.87
2022-10-04T18:53:04.120Z,67.14
2022-10-04T18:55:44.992Z,67.46
2022-10-04T18:58:45.320Z,67.63
2022-10-04T19:01:50.834Z,67.89
2022-10-04T19:04:26.693Z,68.09
2022-10-04T19:07:02.413Z,68.12
2022-10-04T19:09:47.699Z,68.60
2022-10-04T19:12:21.286Z,68.30
2022-10-04T19:15:17.668Z,68.47
2022-10-04T19:18:00.691Z,68.20
2022-10-04T19:20:54.032Z,68.83
2022-10-04T19:23:36.565Z,68.48
2022-10-04T19:26:31.827Z,68.55
2022-10-04T19:29:34.898Z,69.03
2022-10-04T19:32:17.633Z,69.43
2022-10-04T19:35:13.128Z,69.72
2022-10-04T19:38:01.574Z,69.46
2022-10-04T19:40:50.255Z,68.65
2022-10-04T19:43:42.916Z,68.93
2022-10-04T19:46:44.063Z,69.13
2022-10-04T19:49:21.652Z,68.72
2022-10-04T19:51:54.504Z,69.84
2022-10-04T19:54:34.964Z,70.13
2022-10-04T19:57:05.413Z,70.22
2022-10-04T19:59:40.574Z,70.25
2022-10-04T20:02:11.743Z,70.20
2022-10-04T20:04:49.055Z,70.32
2022-10-04T20:07:24.682Z,70.53
2022-10-04T20:10:15.086Z,70.48
2022-10-04T20:12:45.054Z,70.30
2022-10-04T20:15:17.562Z,70.34
2022-10-04T20:17:46.185Z,70.90
2022-10-04T20:20:38.626Z,71.44
2022-10-04T20:23:07.788Z,71.85
2022-10-04T20:25:49.428Z,71.99
2022-10-04T20:28:28.671Z,71.87
2022-10-04T20:31:03.113Z,72.34
2022-10-04T20:33:34.711Z,72.26
2022-10-04T20:36:12.363Z,72.74
2022-10-04T20:38:59.587Z,72.40
2022-10-04T20:41:29.254Z,73.10
2022-10-04T20:44:01.907Z,72.84
2022-10-04T20:46:38.193Z,73.04
2022-10-04T20:49:14.743Z,72.72
2022-10-04T20:51:48.182Z,72.37
2022-10-04T20:54:18.788Z,71.93
2022-10-04T20:56:50.324Z,72.69
2022-10-04T20:59:18.193Z,72.91
2022-10-04T21:02:01.181Z,72.89
2022-10-04T21:04:33.834Z,72.57
2022-10-04T21:07:02.777Z,72.38
2022-10-04T21:09:33.654Z,72.92
2022-10-04T21:12:01.443Z,72.39
2022-10-04T21:14:36.212Z,72.24
2022-10-04T21:17:05.241Z,72.53
2022-10-04T21:19:43.026Z,72.64
2022-10-04T21:22:15.588Z,71.83
2022-10-04T21:24:48.047Z,71.77
2022-10-04T21:27:34.045Z,72.08
2022-10-04T21:30:03.050Z,72.15
2022-10-04T21:32:34.463Z,72.18
2022-10-04T21:35:01.092Z,72.66
2022-10-04T21:37:27.489Z,73.78
2022-10-04T21:39:53.937Z,76.35
2022-10-04T21:42:20.504Z,75.62
2022-10-04T21:44:46.945Z,74.93
2022-10-04T21:47:13.415Z,74.82
2022-10-04T21:49:40.086Z,74.51
2022-10-04T21:52:07.062Z,75.78
2022-10-04T21:54:34.002Z,78.15
2022-10-04T21:57:00.473Z,77.37
2022-10-04T21:59:26.953Z,77.84
